createdAt,value
2022-10-25T00:01:30.674Z,1.90
2022-10-25T00:06:32.691Z,2.03
2022-10-25T00:11:35.181Z,2.20
2022-10-25T00:16:38.678Z,2.10
2022-10-25T00:21:40.911Z,1.80
2022-10-25T00:26:42.891Z,1.50
2022-10-25T00:31:45.202Z,1.63
2022-10-25T00:36:47.147Z,1.90
2022-10-25T00:41:49.094Z,1.37
2022-10-25T00:46:52.054Z,1.50
2022-10-25T00:51:58.696Z,1.20
2022-10-25T00:57:08.821Z,1.23
2022-10-25T01:02:11.924Z,1.77
2022-10-25T01:07:13.765Z,1.67
2022-10-25T01:12:15.505Z,1.90
2022-10-25T01:17:32.902Z,1.33
2022-10-25T01:22:43.381Z,2.27
2022-10-25T01:27:49.007Z,1.40
2022-10-25T01:33:21.086Z,1.67
2022-10-25T01:38:29.142Z,1.90
2022-10-25T01:43:42.594Z,1.53
2022-10-25T01:48:54.665Z,1.63
2022-10-25T01:53:56.631Z,1.80
2022-10-25T01:59:09.489Z,1.73
2022-10-25T02:04:27.999Z,1.40
2022-10-25T02:09:44.890Z,2.00
2022-10-25T02:15:07.504Z,1.77
2022-10-25T02:20:12.316Z,2.00
2022-10-25T02:25:14.994Z,1.23
2022-10-25T02:30:16.962Z,2.23
2022-10-25T02:35:19.147Z,1.70
2022-10-25T02:40:21.473Z,3.97
2022-10-25T02:45:23.913Z,1.33
2022-10-25T02:50:25.686Z,1.63
2022-10-25T02:55:27.430Z,1.80
2022-10-25T03:00:29.643Z,1.63
2022-10-25T03:05:31.663Z,2.23
2022-10-25T03:10:36.826Z,1.53
2022-10-25T03:15:38.726Z,2.10
2022-10-25T03:20:41.563Z,1.80
2022-10-25T03:25:43.375Z,1.70
2022-10-25T03:30:45.244Z,1.53
2022-10-25T03:35:50.777Z,1.73
2022-10-25T03:40:53.629Z,1.70
2022-10-25T03:45:55.441Z,2.30
2022-10-25T03:50:57.390Z,2.23
2022-10-25T03:55:59.435Z,1.93
2022-10-25T04:01:01.363Z,2.47
2022-10-25T04:06:03.263Z,2.20
2022-10-25T04:11:05.230Z,2.47
2022-10-25T04:16:10.575Z,2.57
2022-10-25T04:21:12.392Z,2.83
2022-10-25T04:26:17.440Z,2.60
2022-10-25T04:31:20.054Z,3.00
2022-10-25T04:36:23.351Z,3.27
2022-10-25T04:41:25.330Z,2.87
2022-10-25T04:46:27.268Z,3.10
2022-10-25T04:51:29.441Z,2.40
2022-10-25T04:56:32.159Z,3.60
2022-10-25T05:01:34.047Z,3.07
2022-10-25T05:06:35.858Z,2.83
2022-10-25T05:11:37.874Z,3.40
2022-10-25T05:16:39.989Z,2.90
2022-10-25T05:21:41.933Z,3.60
2022-10-25T05:26:43.763Z,2.93
2022-10-25T05:31:45.505Z,3.13
2022-10-25T05:36:47.362Z,2.73
2022-10-25T05:41:49.785Z,2.90
2022-10-25T05:46:51.869Z,2.93
2022-10-25T05:51:53.614Z,2.73
2022-10-25T05:56:55.365Z,3.03
2022-10-25T06:01:57.377Z,3.10
2022-10-25T06:06:59.338Z,2.73
2022-10-25T06:12:02.238Z,3.47
2022-10-25T06:17:05.686Z,3.80
2022-10-25T06:22:07.607Z,4.07
2022-10-25T06:27:09.526Z,3.70
2022-10-25T06:32:11.458Z,2.73
2022-10-25T06:37:15.438Z,2.77
2022-10-25T06:42:17.343Z,2.77
2022-10-25T06:47:19.095Z,2.87
2022-10-25T06:52:21.043Z,2.57
2022-10-25T06:57:23.095Z,2.17
2022-10-25T07:02:24.933Z,2.07
2022-10-25T07:07:26.885Z,1.60
2022-10-25T07:12:29.759Z,2.70
2022-10-25T07:17:31.515Z,2.63
2022-10-25T07:22:33.570Z,1.93
2022-10-25T07:27:35.307Z,2.13
2022-10-25T07:32:41.514Z,2.00
2022-10-25T07:37:44.465Z,2.03
2022-10-25T07:42:49.319Z,2.03
2022-10-25T07:47:52.306Z,1.97
2022-10-25T07:52:55.210Z,2.73
2022-10-25T07:58:01.761Z,1.90
2022-10-25T08:03:04.121Z,1.58
2022-10-25T08:08:06.162Z,1.63
2022-10-25T08:13:08.057Z,1.60
2022-10-25T08:18:10.016Z,1.87
2022-10-25T08:23:12.688Z,2.40
2022-10-25T08:28:14.474Z,2.28
2022-10-25T08:33:19.308Z,3.13
2022-10-25T08:38:21.213Z,1.73
2022-10-25T08:43:44.338Z,2.35
2022-10-25T08:48:52.898Z,2.50
2022-10-25T08:53:58.229Z,2.38
2022-10-25T08:59:02.361Z,1.63
2022-10-25T09:04:04.367Z,1.95
2022-10-25T09:09:28.125Z,1.65
2022-10-25T09:14:59.079Z,1.55
2022-10-25T09:20:06.444Z,2.00
2022-10-25T09:25:33.101Z,3.38
2022-10-25T09:30:41.382Z,1.83
2022-10-25T09:35:53.516Z,2.05
2022-10-25T09:41:04.317Z,2.53
2022-10-25T09:46:13.762Z,1.92
2022-10-25T09:51:44.114Z,2.00
2022-10-25T09:56:45.871Z,2.13
2022-10-25T10:01:47.732Z,3.28
2022-10-25T10:06:52.297Z,2.67
2022-10-25T10:11:54.413Z,2.63
2022-10-25T10:16:58.113Z,2.38
2022-10-25T10:22:09.078Z,2.40
2022-10-25T10:27:24.397Z,2.15
2022-10-25T10:32:31.794Z,2.00
2022-10-25T10:37:34.573Z,2.00
2022-10-25T10:42:38.391Z,1.70
2022-10-25T10:47:50.651Z,2.03
2022-10-25T10:53:05.013Z,1.50
2022-10-25T10:58:15.243Z,1.13
2022-10-25T11:03:53.562Z,2.05
2022-10-25T11:09:17.887Z,1.42
2022-10-25T11:14:20.566Z,1.40
2022-10-25T11:19:34.872Z,1.50
2022-10-25T11:24:54.625Z,0.93
2022-10-25T11:30:09.625Z,1.25
2022-10-25T11:35:26.755Z,1.05
2022-10-25T11:40:32.751Z,1.38
2022-10-25T11:45:47.006Z,1.45
2022-10-25T11:50:52.052Z,1.40
2022-10-25T11:56:02.187Z,1.10
2022-10-25T12:01:35.035Z,1.30
2022-10-25T12:06:55.954Z,1.25
2022-10-25T12:12:06.723Z,1.13
2022-10-25T12:17:19.938Z,1.27
2022-10-25T12:22:26.042Z,1.05
2022-10-25T12:27:29.797Z,1.13
2022-10-25T12:32:43.335Z,1.30
2022-10-25T12:37:55.111Z,1.48
2022-10-25T12:43:16.874Z,1.33
2022-10-25T12:48:21.689Z,0.98
2022-10-25T12:53:38.765Z,1.50
2022-10-25T12:59:21.557Z,1.67
2022-10-25T13:04:50.202Z,1.25
2022-10-25T13:09:52.526Z,1.92
2022-10-25T13:14:56.914Z,1.38
2022-10-25T13:20:22.732Z,1.67
2022-10-25T13:25:30.598Z,1.33
2022-10-25T13:30:32.747Z,1.40
2022-10-25T13:35:37.511Z,1.30
2022-10-25T13:40:39.454Z,1.30
2022-10-25T13:45:44.134Z,1.00
2022-10-25T13:50:53.256Z,1.67
2022-10-25T13:56:04.182Z,1.65
2022-10-25T14:01:15.031Z,1.30
2022-10-25T14:06:37.643Z,1.20
2022-10-25T14:11:51.602Z,1.50
2022-10-25T14:17:12.222Z,0.63
2022-10-25T14:22:32.840Z,1.45
2022-10-25T14:27:37.094Z,0.98
2022-10-25T14:32:38.953Z,1.10
2022-10-25T14:37:43.100Z,0.65
2022-10-25T14:42:45.022Z,1.10
2022-10-25T14:47:47.174Z,1.17
2022-10-25T14:52:50.749Z,1.08
2022-10-25T14:57:53.140Z,1.00
2022-10-25T15:03:05.615Z,0.88
2022-10-25T15:08:21.163Z,1.10
2022-10-25T15:13:38.221Z,1.17
2022-10-25T15:18:40.316Z,1.02
2022-10-25T15:23:44.494Z,1.30
2022-10-25T15:28:52.685Z,1.00
2022-10-25T15:34:03.361Z,1.02
2022-10-25T15:39:26.702Z,0.93
2022-10-25T15:44:28.602Z,0.80
2022-10-25T15:54:37.610Z,0.73
2022-10-25T15:59:39.620Z,0.85
2022-10-25T16:04:41.546Z,1.00
2022-10-25T16:09:43.372Z,1.17
2022-10-25T16:14:45.892Z,1.00
2022-10-25T16:19:47.842Z,1.20
2022-10-25T16:24:49.801Z,1.15
2022-10-25T16:29:51.730Z,1.40
2022-10-25T16:34:53.502Z,1.87
2022-10-25T16:39:55.351Z,1.37
2022-10-25T16:44:58.238Z,1.60
2022-10-25T16:50:00.197Z,1.60
2022-10-25T16:55:02.006Z,1.40
2022-10-25T17:00:04.479Z,1.50
2022-10-25T17:05:09.402Z,1.50
2022-10-25T17:10:16.238Z,2.30
2022-10-25T17:15:18.949Z,2.03
2022-10-25T17:20:20.994Z,1.80
2022-10-25T17:25:23.174Z,1.93
2022-10-25T17:30:25.074Z,1.40
2022-10-25T17:35:29.721Z,2.00
2022-10-25T17:40:31.611Z,1.70
2022-10-25T17:45:33.708Z,2.13
2022-10-25T17:50:36.761Z,1.90
2022-10-25T17:55:41.127Z,1.97
2022-10-25T18:00:43.340Z,1.70
2022-10-25T18:05:45.069Z,2.30
2022-10-25T18:10:46.845Z,2.23
2022-10-25T18:15:51.549Z,2.30
2022-10-25T18:20:53.305Z,2.57
2022-10-25T18:31:06.350Z,2.40
2022-10-25T18:36:11.518Z,2.00
2022-10-25T18:41:16.233Z,2.20
2022-10-25T18:46:18.422Z,2.07
2022-10-25T18:51:22.381Z,2.10
2022-10-25T18:56:25.114Z,2.47
2022-10-25T19:01:32.038Z,3.20
2022-10-25T19:06:34.301Z,2.70
2022-10-25T19:11:36.228Z,2.00
2022-10-25T19:16:40.669Z,2.00
2022-10-25T19:21:43.075Z,3.10
2022-10-25T19:26:45.002Z,2.60
2022-10-25T19:31:46.798Z,2.20
2022-10-25T19:36:48.887Z,2.87
2022-10-25T19:41:50.647Z,3.00
2022-10-25T19:46:52.829Z,3.03
2022-10-25T19:51:54.618Z,2.90
2022-10-25T19:56:56.609Z,2.80
2022-10-25T20:01:58.706Z,3.33
2022-10-25T20:07:00.637Z,2.67
2022-10-25T20:12:02.634Z,3.17
2022-10-25T20:17:05.644Z,3.47
2022-10-25T20:22:07.689Z,3.10
2022-10-25T20:27:09.670Z,3.00
2022-10-25T20:32:12.731Z,3.20
2022-10-25T20:37:14.553Z,3.60
2022-10-25T20:42:17.702Z,3.00
2022-10-25T20:47:19.678Z,2.87
2022-10-25T20:52:21.770Z,2.87
2022-10-25T20:57:23.549Z,3.37
2022-10-25T21:02:25.500Z,2.93
2022-10-25T21:07:31.402Z,3.97
2022-10-25T21:12:33.254Z,3.20
2022-10-25T21:17:35.458Z,2.73
2022-10-25T21:22:41.020Z,3.70
2022-10-25T21:27:42.831Z,3.17
2022-10-25T21:32:44.735Z,2.77
2022-10-25T21:37:49.252Z,2.77
2022-10-25T21:42:51.225Z,2.50
2022-10-25T21:47:53.017Z,3.10
2022-10-25T21:52:54.767Z,2.73
2022-10-25T21:57:57.565Z,2.40
2022-10-25T22:02:59.629Z,2.63
2022-10-25T22:08:01.570Z,2.80
2022-10-25T22:13:03.634Z,2.87
2022-10-25T22:18:05.578Z,2.50
2022-10-25T22:23:07.594Z,3.23
2022-10-25T22:28:09.496Z,2.40
2022-10-25T22:33:11.883Z,2.83
2022-10-25T22:38:13.972Z,2.53
2022-10-25T22:43:15.897Z,2.40
2022-10-25T22:48:17.896Z,2.87
2022-10-25T22:53:21.461Z,3.70
2022-10-25T22:58:24.710Z,2.83
2022-10-25T23:03:26.827Z,2.30
2022-10-25T23:08:29.530Z,2.97
2022-10-25T23:13:34.551Z,2.57
2022-10-25T23:18:37.518Z,2.43
2022-10-25T23:23:39.600Z,2.87
2022-10-25T23:28:41.569Z,2.50
2022-10-25T23:33:45.219Z,2.23
2022-10-25T23:38:48.550Z,2.20
2022-10-25T23:43:50.672Z,1.73
2022-10-25T23:48:52.553Z,2.10
2022-10-25T23:53:54.406Z,3.30
2022-10-25T23:58:56.388Z,1.90
